• Join FlightAware (Why Join?)
  • Login
  • US Flag 
06:19PM EST


 

Airport Tracker/Info


-or-


 

Live Flight TrackerFlight Track Log ✈ AAL621 ✈ 23-Apr-2013 ✈ KELP - KDFW

Flight Track Log - Related Links

Times and Time Zones

All times are in EDT time to prevent confusion due to time zone crossing. See the AAL621 flight status page for this flight to view local times or setup timezone preferences in your user account.

Time Position Orientation Groundspeed Altitude Reporting Facility
EDT Latitude Longitude Course Direction KTS MPH feet Rate Location/Type
12:53PM 31.7981 -106.4039 90° East 183 211 4,700  Level Albuquerque Center
12:54PM 31.7639 -106.4147 195° South 211 243 5,800 1,800 Climbing Albuquerque Center
12:55PM 31.7242 -106.3256 118° Southeast 274 315 8,300 2,220 Climbing Albuquerque Center
12:56PM 31.7833 -106.0551 90° East  Level FlightAware Approximate
12:56PM 31.7281 -106.2264 87° East 306 352 10,900  Level Albuquerque Center
12:57PM 31.7834 -105.9240 90° East  Level FlightAware Approximate
12:57PM 31.7764 -106.1311 59° Northeast 339 390 13,000  Level Albuquerque Center
12:58PM 31.7833 -105.7930 90° East  Level FlightAware Approximate
12:58PM 31.7872 -106.0133 84° East 366 421 15,600  Level Albuquerque Center
12:59PM 31.7858 -105.8883 91° East 383 441 17,900 2,280 Climbing Albuquerque Center
01:00PM 31.7850 -105.7331 90° East 396 456 20,400 2,160 Climbing Albuquerque Center
01:01PM 31.7800 -105.5975 92° East 412 474 22,400 1,800 Climbing Albuquerque Center
01:02PM 31.7703 -105.4583 95° East 424 488 24,200 1,560 Climbing Albuquerque Center
01:03PM 31.7617 -105.3164 94° East 434 499 25,700 1,380 Climbing Albuquerque Center
01:04PM 31.7542 -105.1722 93° East 439 505 27,100 1,320 Climbing Albuquerque Center
01:05PM 31.7542 -105.0211 90° East 456 525 28,500 1,380 Climbing Albuquerque Center
01:06PM 31.7700 -104.8381 84° East 467 537 30,000 1,140 Climbing Albuquerque Center
01:07PM 31.7811 -104.6831 85° East 472 543 30,900 960 Climbing Albuquerque Center
01:08PM 31.7925 -104.5233 85° East 485 558 32,000 960 Climbing Albuquerque Center
01:09PM 31.8044 -104.3619 85° East 491 565 32,900 480 Climbing Albuquerque Center
01:10PM 31.8161 -104.2050 85° East 486 559 33,000  Climbing Albuquerque Center
01:12PM 31.8256 -104.0464 86° East 487 560 32,900 -60 Descending Albuquerque Center
01:13PM 31.8356 -103.8872 86° East 487 560 32,900  Level Albuquerque Center
01:14PM 31.8472 -103.7044 86° East 487 560 33,000  Climbing Albuquerque Center
01:15PM 31.8561 -103.5469 86° East 485 558 33,000  Level Albuquerque Center
01:16PM 31.8672 -103.3892 85° East 487 560 33,000  Level Albuquerque Center
01:17PM 31.8772 -103.2333 86° East 483 556 33,000 -60 Level Albuquerque Center
01:18PM 31.8978 -103.0544 82° East 487 560 32,900 -60 Descending Albuquerque Center
01:19PM 31.9158 -102.9025 82° East 478 550 32,900  Level Fort Worth Center
01:20PM 31.9358 -102.7300 82° East 478 550 32,900  Level Fort Worth Center
01:21PM 31.9528 -102.5744 83° East 478 550 32,900  Level Fort Worth Center
01:22PM 31.9719 -102.4114 82° East 478 550 32,900  Level Fort Worth Center
01:23PM 31.9883 -102.2556 83° East 478 550 32,900  Level Fort Worth Center
01:24PM 32.0069 -102.0947 82° East 483 556 32,900  Level Fort Worth Center
01:25PM 32.0253 -101.9389 82° East 483 556 32,900  Level Fort Worth Center
01:26PM 32.0436 -101.7781 82° East 483 556 32,900  Level Fort Worth Center
01:27PM 32.0572 -101.6194 84° East 483 556 33,000  Climbing Fort Worth Center
01:28PM 32.0769 -101.4611 82° East 483 556 32,900 -60 Descending Fort Worth Center
01:29PM 32.0906 -101.3022 84° East 483 556 32,900  Level Fort Worth Center
01:30PM 32.1078 -101.1461 83° East 483 556 32,900  Level Fort Worth Center
01:31PM 32.1228 -100.9897 83° East 483 556 33,000  Climbing Fort Worth Center
01:32PM 32.1381 -100.8161 84° East 478 550 33,000  Level Fort Worth Center
01:33PM 32.1525 -100.6597 84° East 478 550 33,000  Level Fort Worth Center
01:34PM 32.1669 -100.5008 84° East 478 550 33,000  Level Fort Worth Center
01:35PM 32.1833 -100.3392 83° East 478 550 33,000  Level Fort Worth Center
01:36PM 32.1972 -100.1825 84° East 478 550 33,000  Level Fort Worth Center
01:37PM 32.2133 -100.0211 83° East 483 556 33,000  Level Fort Worth Center
01:38PM 32.2269 -99.8619 84° East 483 556 33,000  Level Fort Worth Center
01:39PM 32.2278 -99.7047 90° East 477 549 33,000 -180 Level Fort Worth Center
01:40PM 32.2244 -99.5475 91° East 477 549 32,700 -780 Descending Fort Worth Center
01:41PM 32.2039 -99.3997 99° East 471 542 31,500 -1,320 Descending Fort Worth Center
01:42PM 32.1411 -99.2731 120° Southeast 436 502 30,100 -1,440 Descending Fort Worth Center
01:43PM 32.0781 -99.1542 122° Southeast 436 502 28,700 -1,380 Descending Fort Worth Center
01:44PM 32.0128 -99.0353 123° Southeast 436 502 27,400 -1,200 Descending Fort Worth Center
01:45PM 31.9325 -98.9531 139° Southeast 407 468 26,400 -1,080 Descending Fort Worth Center
01:46PM 31.8325 -98.9319 170° South 354 407 25,300 -1,200 Descending Fort Worth Center
01:47PM 31.7325 -98.9156 172° South 354 407 24,000 -660 Descending Fort Worth Center
01:48PM 31.6453 -98.8703 156° South 354 407 24,000  Level Fort Worth Center
01:49PM 31.6447 -98.7433 90° East 307 353 24,000 -180 Level Fort Worth Center
01:50PM 31.7167 -98.6344 52° Northeast 310 357 23,700 -840 Descending Fort Worth Center
01:51PM 31.7783 -98.5278 56° Northeast 352 405 22,400 -1,320 Descending Fort Worth Center
01:52PM 31.8417 -98.4233 54° Northeast 384 442 21,100 -1,320 Descending Fort Worth Center
01:53PM 31.9011 -98.3236 55° Northeast 377 434 19,800 -1,380 Descending Fort Worth Center
01:54PM 31.9622 -98.2189 55° Northeast 377 434 18,400 -1,200 Descending Fort Worth Center
01:55PM 32.0192 -98.1192 56° Northeast 377 434 17,400 -1,080 Descending Fort Worth Center
01:56PM 32.0697 -98.0336 55° Northeast 372 428 16,300 -1,200 Descending Fort Worth Center
01:57PM 32.1308 -97.9286 55° Northeast 355 409 15,000 -1,380 Descending Fort Worth Center
01:58PM 32.1833 -97.8478 52° Northeast 341 392 13,600 -1,620 Descending Fort Worth Center
01:59PM 32.2589 -97.7622 44° Northeast 331 381 11,800 -1,320 Descending Fort Worth Center
02:00PM 32.3194 -97.6861 47° Northeast 324 373 11,000 -1,140 Descending Fort Worth Center
02:01PM 32.3844 -97.6078 45° Northeast 324 373 9,600 -1,440 Descending Fort Worth Center
02:02PM 32.4472 -97.5339 45° Northeast 324 373 8,200 -1,380 Descending Fort Worth Center
02:03PM 32.4764 -97.4381 70° East 306 352 6,900 -900 Descending Fort Worth Center
02:04PM 32.4994 -97.3567 71° East 275 316 6,400 -960 Descending Fort Worth Center
02:05PM 32.5264 -97.2828 67° East 237 273 5,000 -900 Descending Fort Worth Center
02:06PM 32.5158 -97.2114 100° East 220 253 4,600 -600 Descending Fort Worth Center
02:07PM 32.5033 -97.1425 102° East 215 247 3,800 -840 Descending Fort Worth Center
02:08PM 32.5094 -97.0881 82° East 193 222 3,000 -420 Descending Fort Worth Center
02:09PM 32.5572 -97.0608 26° Northeast 160 184 3,000  Level Fort Worth Center
02:10PM 32.6075 -97.0558 North 166 191 3,000  Level Fort Worth Center
02:10PM 32.6333 -97.0500 11° North 178 205 3,000  Level Dallas / Fort Worth TRACON
02:11PM 32.6833 -97.0500 360° North 174 200 3,000  Level Dallas / Fort Worth TRACON